createdAt,value
2022-10-28T00:00:19.314Z,101911.47
2022-10-28T00:03:21.909Z,101911.34
2022-10-28T00:06:25.895Z,101908.59
2022-10-28T00:09:28.784Z,101906.94
2022-10-28T00:12:31.050Z,101905.53
2022-10-28T00:15:34.013Z,101898.50
2022-10-28T00:18:36.232Z,101899.38
2022-10-28T00:21:39.357Z,101899.41
2022-10-28T00:24:41.611Z,101902.03
2022-10-28T00:27:44.104Z,101912.63
2022-10-28T00:30:46.407Z,101904.72
2022-10-28T00:33:49.204Z,101907.38
2022-10-28T00:36:51.604Z,101903.00
2022-10-28T00:39:54.050Z,101904.56
2022-10-28T00:42:56.309Z,101904.72
2022-10-28T00:45:58.947Z,101905.66
2022-10-28T00:49:14.488Z,101901.41
2022-10-28T00:52:19.279Z,101902.47
2022-10-28T00:55:22.318Z,101896.34
2022-10-28T00:58:26.310Z,101899.88
2022-10-28T01:01:28.779Z,101899.94
2022-10-28T01:04:31.598Z,101895.56
2022-10-28T01:07:33.878Z,101900.75
2022-10-28T01:10:42.444Z,101895.47
2022-10-28T01:13:51.950Z,101897.25
2022-10-28T01:16:54.428Z,101898.22
2022-10-28T01:19:56.602Z,101893.03
2022-10-28T01:23:08.138Z,101893.00
2022-10-28T01:26:10.320Z,101884.22
2022-10-28T01:29:19.131Z,101886.81
2022-10-28T01:32:32.904Z,101884.03
2022-10-28T01:35:57.489Z,101871.19
2022-10-28T01:39:18.395Z,101875.59
2022-10-28T01:42:26.914Z,101882.50
2022-10-28T01:45:34.414Z,101884.28
2022-10-28T01:48:43.005Z,101876.47
2022-10-28T01:51:50.491Z,101876.53
2022-10-28T01:54:55.588Z,101881.81
2022-10-28T01:57:59.121Z,101872.16
2022-10-28T02:01:04.555Z,101879.16
2022-10-28T02:04:07.096Z,101877.44
2022-10-28T02:07:09.500Z,101868.75
2022-10-28T02:10:16.993Z,101873.94
2022-10-28T02:13:19.714Z,101873.94
2022-10-28T02:16:41.432Z,101864.37
2022-10-28T02:19:48.985Z,101874.88
2022-10-28T02:22:54.607Z,101874.94
2022-10-28T02:26:02.004Z,101873.22
2022-10-28T02:29:23.444Z,101872.34
2022-10-28T02:32:27.244Z,101874.09
2022-10-28T02:35:36.238Z,101873.22
2022-10-28T02:38:53.717Z,101870.53
2022-10-28T02:42:00.911Z,101874.06
2022-10-28T02:45:07.446Z,101873.22
2022-10-28T02:48:13.486Z,101876.78
2022-10-28T02:51:18.491Z,101876.78
2022-10-28T02:54:27.410Z,101868.13
2022-10-28T02:57:32.633Z,101871.69
2022-10-28T03:00:35.227Z,101869.06
2022-10-28T03:03:37.386Z,101862.94
2022-10-28T03:06:39.867Z,101863.69
2022-10-28T03:09:42.135Z,101868.03
2022-10-28T03:12:44.595Z,101865.28
2022-10-28T03:15:47.055Z,101868.88
2022-10-28T03:18:49.512Z,101866.31
2022-10-28T03:21:51.793Z,101865.47
2022-10-28T03:24:54.311Z,101870.69
2022-10-28T03:27:56.657Z,101871.56
2022-10-28T03:30:59.123Z,101868.03
2022-10-28T03:34:01.374Z,101869.81
2022-10-28T03:37:03.816Z,101869.00
2022-10-28T03:40:07.995Z,101861.16
2022-10-28T03:43:10.659Z,101867.19
2022-10-28T03:46:12.889Z,101867.13
2022-10-28T03:49:15.406Z,101861.13
2022-10-28T03:52:17.626Z,101860.28
2022-10-28T03:55:20.225Z,101862.78
2022-10-28T03:58:22.509Z,101860.09
2022-10-28T04:01:25.099Z,101868.78
2022-10-28T04:04:30.602Z,101865.22
2022-10-28T04:07:33.428Z,101860.94
2022-10-28T04:10:35.925Z,101860.09
2022-10-28T04:13:38.221Z,101863.53
2022-10-28T04:16:40.673Z,101859.22
2022-10-28T04:19:42.951Z,101862.69
2022-10-28T04:22:45.455Z,101860.19
2022-10-28T04:25:51.578Z,101853.22
2022-10-28T04:28:54.119Z,101843.69
2022-10-28T04:31:56.405Z,101838.44
2022-10-28T04:34:58.843Z,101835.09
2022-10-28T04:38:01.083Z,101831.59
2022-10-28T04:41:03.925Z,101833.31
2022-10-28T04:44:06.204Z,101828.12
2022-10-28T04:47:08.674Z,101836.06
2022-10-28T04:50:11.018Z,101837.72
2022-10-28T04:53:14.968Z,101833.31
2022-10-28T04:56:17.261Z,101829.13
2022-10-28T04:59:19.795Z,101827.34
2022-10-28T05:02:22.699Z,101822.28
2022-10-28T05:05:25.910Z,101829.22
2022-10-28T05:08:28.245Z,101827.53
2022-10-28T05:11:30.939Z,101828.56
2022-10-28T05:14:33.250Z,101832.06
2022-10-28T05:17:35.789Z,101833.06
2022-10-28T05:20:38.034Z,101831.16
2022-10-28T05:23:40.586Z,101827.81
2022-10-28T05:26:42.892Z,101832.88
2022-10-28T05:29:45.399Z,101832.97
2022-10-28T05:32:49.325Z,101834.88
2022-10-28T05:35:54.254Z,101834.69
2022-10-28T05:38:56.546Z,101841.72
2022-10-28T05:41:59.208Z,101840.97
2022-10-28T05:45:01.435Z,101841.78
2022-10-28T05:48:04.099Z,101841.91
2022-10-28T05:51:06.368Z,101841.81
2022-10-28T05:54:08.918Z,101839.31
2022-10-28T05:57:11.167Z,101850.66
2022-10-28T06:00:14.251Z,101852.38
2022-10-28T06:03:16.810Z,101859.25
2022-10-28T06:06:19.240Z,101862.62
2022-10-28T06:09:22.015Z,101863.53
2022-10-28T06:12:22.782Z,101867.91
2022-10-28T06:15:28.162Z,101862.56
2022-10-28T06:18:30.445Z,101871.19
2022-10-28T06:21:32.983Z,101867.87
2022-10-28T06:24:35.194Z,101861.06
2022-10-28T06:27:37.667Z,101867.87
2022-10-28T06:30:39.886Z,101872.97
2022-10-28T06:33:42.436Z,101866.88
2022-10-28T06:36:44.753Z,101871.25
2022-10-28T06:39:51.210Z,101870.31
2022-10-28T06:43:00.237Z,101868.50
2022-10-28T06:46:03.908Z,101869.34
2022-10-28T06:49:09.120Z,101871.94
2022-10-28T06:52:11.723Z,101874.47
2022-10-28T06:55:13.957Z,101877.91
2022-10-28T06:58:16.468Z,101879.53
2022-10-28T07:01:19.004Z,101886.50
2022-10-28T07:04:21.558Z,101884.69
2022-10-28T07:07:23.850Z,101895.06
2022-10-28T07:10:26.376Z,101888.09
2022-10-28T07:13:29.083Z,101884.72
2022-10-28T07:16:31.643Z,101886.31
2022-10-28T07:19:33.959Z,101883.56
2022-10-28T07:22:36.664Z,101884.28
2022-10-28T07:25:38.997Z,101886.00
2022-10-28T07:28:42.911Z,101884.63
2022-10-28T07:31:45.282Z,101878.53
2022-10-28T07:34:47.846Z,101883.34
2022-10-28T07:37:50.009Z,101874.37
2022-10-28T07:40:52.641Z,101880.59
2022-10-28T07:43:54.882Z,101889.97
2022-10-28T07:46:58.334Z,101895.81
2022-10-28T07:50:00.773Z,101894.87
2022-10-28T07:53:03.543Z,101894.81
2022-10-28T07:56:09.645Z,101900.91
2022-10-28T07:59:12.188Z,101890.63
2022-10-28T08:02:16.580Z,101893.19
2022-10-28T08:05:19.103Z,101889.88
2022-10-28T08:08:21.351Z,101893.50
2022-10-28T08:11:23.989Z,101889.78
2022-10-28T08:14:26.262Z,101885.13
2022-10-28T08:17:29.314Z,101871.06
2022-10-28T08:20:31.768Z,101868.38
2022-10-28T08:23:34.675Z,101864.97
2022-10-28T08:26:36.960Z,101865.94
2022-10-28T08:29:39.420Z,101866.34
2022-10-28T08:32:41.785Z,101869.56
2022-10-28T08:35:49.529Z,101871.66
2022-10-28T08:38:51.745Z,101882.94
2022-10-28T08:42:09.692Z,101884.53
2022-10-28T08:45:21.340Z,101885.13
2022-10-28T08:48:31.749Z,101898.16
2022-10-28T08:51:42.156Z,101893.03
2022-10-28T08:54:47.554Z,101885.22
2022-10-28T08:57:55.273Z,101891.13
2022-10-28T09:01:00.023Z,101892.47
2022-10-28T09:04:05.771Z,101900.81
2022-10-28T09:07:13.910Z,101902.41
2022-10-28T09:10:17.070Z,101901.22
2022-10-28T09:13:25.736Z,101908.81
2022-10-28T09:16:46.255Z,101905.03
2022-10-28T09:19:53.155Z,101906.56
2022-10-28T09:22:57.163Z,101901.19
2022-10-28T09:26:06.405Z,101901.50
2022-10-28T09:29:15.295Z,101898.78
2022-10-28T09:32:25.587Z,101905.69
2022-10-28T09:35:30.781Z,101904.09
2022-10-28T09:38:39.777Z,101903.94
2022-10-28T09:41:43.461Z,101899.59
2022-10-28T09:44:49.637Z,101896.62
2022-10-28T09:47:57.266Z,101890.59
2022-10-28T09:51:00.938Z,101895.75
2022-10-28T09:54:03.225Z,101902.53
2022-10-28T09:57:06.061Z,101903.66
2022-10-28T10:00:11.968Z,101904.56
2022-10-28T10:03:15.714Z,101895.97
2022-10-28T10:06:23.946Z,101890.41
2022-10-28T10:09:30.791Z,101894.84
2022-10-28T10:12:33.240Z,101897.59
2022-10-28T10:15:37.927Z,101901.84
2022-10-28T10:18:46.887Z,101907.53
2022-10-28T10:21:50.636Z,101905.88
2022-10-28T10:24:52.918Z,101910.34
2022-10-28T10:27:56.019Z,101901.53
2022-10-28T10:31:00.844Z,101896.19
2022-10-28T10:34:03.307Z,101897.59
2022-10-28T10:37:05.575Z,101895.03
2022-10-28T10:40:31.132Z,101894.09
2022-10-28T10:43:34.483Z,101897.13
2022-10-28T10:46:38.094Z,101896.72
2022-10-28T10:49:40.595Z,101887.31
2022-10-28T10:52:48.101Z,101883.12
2022-10-28T10:55:52.295Z,101884.31
2022-10-28T10:58:56.232Z,101888.06
2022-10-28T11:01:59.463Z,101890.47
2022-10-28T11:05:03.995Z,101885.00
2022-10-28T11:08:07.688Z,101883.84
2022-10-28T11:11:21.137Z,101881.66
2022-10-28T11:14:29.010Z,101881.50
2022-10-28T11:20:47.931Z,101875.69
2022-10-28T11:23:58.291Z,101880.53
2022-10-28T11:27:08.453Z,101879.41
2022-10-28T11:30:13.164Z,101883.94
2022-10-28T11:33:33.439Z,101875.16
2022-10-28T11:36:44.870Z,101871.88
2022-10-28T11:40:03.602Z,101872.28
2022-10-28T11:43:15.318Z,101874.81
2022-10-28T11:46:23.617Z,101868.03
2022-10-28T11:49:35.270Z,101869.25
2022-10-28T11:53:00.897Z,101859.69
2022-10-28T11:56:03.343Z,101856.50
2022-10-28T11:59:08.694Z,101846.78
2022-10-28T12:02:26.408Z,101846.00
2022-10-28T12:05:38.119Z,101844.47
2022-10-28T12:08:43.372Z,101841.69
2022-10-28T12:15:11.411Z,101837.50
2022-10-28T12:18:20.285Z,101828.91
2022-10-28T12:21:22.776Z,101821.75
2022-10-28T12:24:26.942Z,101827.13
2022-10-28T12:27:31.394Z,101821.62
2022-10-28T12:30:36.228Z,101822.63
2022-10-28T12:33:43.873Z,101823.78
2022-10-28T12:36:46.411Z,101823.03
2022-10-28T12:39:57.188Z,101820.25
2022-10-28T12:43:09.444Z,101817.31
2022-10-28T12:46:20.322Z,101810.47
2022-10-28T12:49:46.120Z,101817.31
2022-10-28T12:52:51.418Z,101816.16
2022-10-28T12:56:01.257Z,101820.00
2022-10-28T12:59:06.514Z,101813.25
2022-10-28T13:02:20.189Z,101801.88
2022-10-28T13:05:25.414Z,101796.44
2022-10-28T13:08:50.855Z,101794.09
2022-10-28T13:11:56.213Z,101794.53
2022-10-28T13:15:01.887Z,101799.53
2022-10-28T13:18:23.399Z,101798.03
2022-10-28T13:21:40.160Z,101798.03
2022-10-28T13:24:49.508Z,101795.34
2022-10-28T13:27:59.344Z,101793.59
2022-10-28T13:31:06.145Z,101792.03
2022-10-28T13:34:09.623Z,101797.19
2022-10-28T13:37:19.459Z,101800.03
2022-10-28T13:40:31.016Z,101790.09
2022-10-28T13:43:54.410Z,101790.91
2022-10-28T13:46:59.739Z,101796.13
2022-10-28T13:50:08.743Z,101789.16
2022-10-28T13:53:37.242Z,101790.63
2022-10-28T13:56:44.741Z,101783.50
2022-10-28T13:59:58.570Z,101783.59
2022-10-28T14:03:02.272Z,101793.31
2022-10-28T14:06:05.107Z,101789.16
2022-10-28T14:09:18.590Z,101798.56
2022-10-28T14:12:28.734Z,101799.56
2022-10-28T14:15:30.864Z,101798.19
2022-10-28T14:18:48.702Z,101800.69
2022-10-28T14:21:50.951Z,101807.56
2022-10-28T14:24:53.767Z,101801.53
2022-10-28T14:27:56.354Z,101800.75
2022-10-28T14:31:08.115Z,101795.53
2022-10-28T14:34:13.376Z,101792.91
2022-10-28T14:37:27.495Z,101789.69
2022-10-28T14:40:32.507Z,101791.28
2022-10-28T14:43:53.963Z,101793.03
2022-10-28T14:47:02.248Z,101787.09
2022-10-28T14:50:10.840Z,101794.12
2022-10-28T14:53:25.471Z,101792.53
2022-10-28T14:56:29.315Z,101797.75
2022-10-28T14:59:36.293Z,101779.31
2022-10-28T15:02:39.174Z,101781.28
2022-10-28T15:05:41.514Z,101772.53
2022-10-28T15:08:44.449Z,101773.50
2022-10-28T15:11:49.541Z,101770.03
2022-10-28T15:14:53.402Z,101780.66
2022-10-28T15:17:55.880Z,101770.28
2022-10-28T15:21:09.133Z,101765.87
2022-10-28T15:24:14.305Z,101761.56
2022-10-28T15:27:17.094Z,101760.59
2022-10-28T15:30:23.784Z,101754.59
2022-10-28T15:33:36.778Z,101743.44
2022-10-28T15:36:39.053Z,101745.13
2022-10-28T15:39:41.755Z,101753.06
2022-10-28T15:42:53.744Z,101753.97
2022-10-28T15:46:10.017Z,101749.72
2022-10-28T15:49:30.777Z,101749.78
2022-10-28T15:52:34.881Z,101745.25
2022-10-28T15:59:07.378Z,101754.22
2022-10-28T16:02:28.840Z,101753.31
2022-10-28T16:05:31.427Z,101760.31
2022-10-28T16:08:34.245Z,101760.41
2022-10-28T16:11:41.335Z,101755.16
2022-10-28T16:14:55.103Z,101758.44
2022-10-28T16:17:57.828Z,101742.69
2022-10-28T16:21:01.141Z,101748.87
2022-10-28T16:24:03.781Z,101752.44
2022-10-28T16:27:14.842Z,101751.47
2022-10-28T16:30:18.071Z,101752.31
2022-10-28T16:33:23.965Z,101755.03
2022-10-28T16:36:28.344Z,101756.88
2022-10-28T16:39:30.605Z,101750.78
2022-10-28T16:42:33.496Z,101753.41
2022-10-28T16:45:35.956Z,101751.53
2022-10-28T16:48:38.984Z,101755.09
2022-10-28T16:51:41.166Z,101762.25
2022-10-28T16:54:43.839Z,101761.28
2022-10-28T16:57:46.293Z,101768.16
2022-10-28T17:00:48.995Z,101757.66
2022-10-28T17:03:51.443Z,101762.78
2022-10-28T17:06:54.150Z,101763.69
2022-10-28T17:09:56.956Z,101766.22
2022-10-28T17:12:59.954Z,101765.34
2022-10-28T17:16:02.415Z,101757.53
2022-10-28T17:19:05.230Z,101760.06
2022-10-28T17:22:09.324Z,101757.47
2022-10-28T17:25:13.180Z,101759.84
2022-10-28T17:28:15.667Z,101763.47
2022-10-28T17:31:20.658Z,101758.28
2022-10-28T17:34:26.701Z,101753.13
2022-10-28T17:37:29.486Z,101760.06
2022-10-28T17:40:32.449Z,101767.03
2022-10-28T17:43:36.454Z,101759.78
2022-10-28T17:46:38.911Z,101770.47
2022-10-28T17:49:42.426Z,101756.50
2022-10-28T17:52:44.967Z,101771.25
2022-10-28T17:55:57.582Z,101761.69
2022-10-28T17:59:01.653Z,101766.91
2022-10-28T18:02:04.604Z,101768.63
2022-10-28T18:05:07.864Z,101763.47
2022-10-28T18:08:10.355Z,101760.81
2022-10-28T18:11:14.519Z,101755.53
2022-10-28T18:14:17.752Z,101763.47
2022-10-28T18:17:21.079Z,101752.97
2022-10-28T18:20:23.538Z,101753.78
2022-10-28T18:23:26.534Z,101748.56
2022-10-28T18:26:31.813Z,101756.31
2022-10-28T18:29:34.697Z,101756.31
2022-10-28T18:32:37.152Z,101744.22
2022-10-28T18:35:40.974Z,101748.47
2022-10-28T18:38:44.778Z,101741.66
2022-10-28T18:41:47.934Z,101742.63
2022-10-28T18:44:50.403Z,101735.50
2022-10-28T18:47:54.658Z,101744.31
2022-10-28T18:50:58.096Z,101741.66
2022-10-28T18:54:01.037Z,101733.94
2022-10-28T18:57:03.619Z,101732.19
2022-10-28T19:00:22.146Z,101732.19
2022-10-28T19:03:25.632Z,101738.13
2022-10-28T19:06:32.349Z,101730.28
2022-10-28T19:09:36.591Z,101731.16
2022-10-28T19:12:42.929Z,101729.41
2022-10-28T19:15:47.657Z,101728.56
2022-10-28T19:18:53.702Z,101726.75
2022-10-28T19:21:56.975Z,101727.69
2022-10-28T19:24:59.930Z,101728.59
2022-10-28T19:28:02.872Z,101733.66
2022-10-28T19:31:06.914Z,101735.50
2022-10-28T19:34:10.823Z,101734.63
2022-10-28T19:37:14.025Z,101740.62
2022-10-28T19:40:17.730Z,101728.50
2022-10-28T19:43:20.564Z,101740.78
2022-10-28T19:46:23.133Z,101745.13
2022-10-28T19:49:29.739Z,101740.94
2022-10-28T19:52:37.078Z,101745.28
2022-10-28T19:55:39.893Z,101745.19
2022-10-28T19:58:42.670Z,101747.84
2022-10-28T20:01:45.542Z,101745.25
2022-10-28T20:04:53.297Z,101740.84
2022-10-28T20:07:56.717Z,101751.22
2022-10-28T20:11:00.572Z,101756.44
2022-10-28T20:14:04.757Z,101762.59
2022-10-28T20:17:07.524Z,101760.81
2022-10-28T20:20:10.304Z,101749.44
2022-10-28T20:23:12.993Z,101750.31
2022-10-28T20:26:15.648Z,101749.38
2022-10-28T20:29:18.177Z,101751.22
2022-10-28T20:32:22.373Z,101761.56
2022-10-28T20:35:24.927Z,101755.50
2022-10-28T20:38:27.883Z,101758.28
2022-10-28T20:41:31.982Z,101751.13
2022-10-28T20:44:34.230Z,101753.91
2022-10-28T20:47:36.711Z,101747.75
2022-10-28T20:50:39.033Z,101759.06
2022-10-28T20:53:41.867Z,101756.41
2022-10-28T20:56:44.113Z,101764.28
2022-10-28T20:59:46.705Z,101754.56
2022-10-28T21:02:49.095Z,101751.13
2022-10-28T21:05:51.731Z,101753.84
2022-10-28T21:08:54.635Z,101753.78
2022-10-28T21:11:57.180Z,101749.44
2022-10-28T21:14:59.388Z,101753.69
2022-10-28T21:18:02.207Z,101754.59
2022-10-28T21:21:04.650Z,101747.75
2022-10-28T21:24:07.345Z,101749.44
2022-10-28T21:27:09.578Z,101745.94
2022-10-28T21:30:12.297Z,101743.34
2022-10-28T21:33:17.678Z,101739.91
2022-10-28T21:36:21.128Z,101741.59
2022-10-28T21:39:23.382Z,101744.09
2022-10-28T21:42:26.203Z,101736.38
2022-10-28T21:45:28.499Z,101747.75
2022-10-28T21:48:31.626Z,101744.34
2022-10-28T21:51:33.876Z,101742.63
2022-10-28T21:54:36.376Z,101732.16
2022-10-28T21:57:38.557Z,101731.22
2022-10-28T22:00:42.177Z,101729.47
2022-10-28T22:03:44.706Z,101726.84
2022-10-28T22:09:50.073Z,101725.84
2022-10-28T22:12:52.313Z,101726.72
2022-10-28T22:16:01.900Z,101722.44
2022-10-28T22:19:05.711Z,101720.78
2022-10-28T22:22:08.209Z,101714.63
2022-10-28T22:25:10.792Z,101718.06
2022-10-28T22:28:13.743Z,101720.66
2022-10-28T22:31:18.039Z,101719.78
2022-10-28T22:34:20.604Z,101724.16
2022-10-28T22:37:22.819Z,101724.16
2022-10-28T22:40:25.474Z,101717.22
2022-10-28T22:43:27.813Z,101716.41
2022-10-28T22:46:33.587Z,101709.31
2022-10-28T22:49:35.747Z,101707.59
2022-10-28T22:52:38.284Z,101702.31
2022-10-28T22:55:40.647Z,101705.03
2022-10-28T22:58:43.501Z,101696.34
2022-10-28T23:01:45.892Z,101701.63
2022-10-28T23:04:48.379Z,101700.78
2022-10-28T23:07:50.693Z,101706.75
2022-10-28T23:10:53.199Z,101704.28
2022-10-28T23:13:55.929Z,101698.22
2022-10-28T23:16:58.469Z,101690.47
2022-10-28T23:20:00.749Z,101688.72
2022-10-28T23:23:03.598Z,101685.19
2022-10-28T23:26:06.123Z,101690.41
2022-10-28T23:29:08.982Z,101697.38
2022-10-28T23:32:11.271Z,101691.22
2022-10-28T23:35:14.023Z,101687.69
2022-10-28T23:38:16.531Z,101692.75
2022-10-28T23:41:20.908Z,101685.91
2022-10-28T23:44:23.233Z,101678.13
2022-10-28T23:47:25.701Z,101679.91
2022-10-28T23:50:28.232Z,101684.22
2022-10-28T23:53:31.218Z,101688.56
2022-10-28T23:56:33.813Z,101688.63
2022-10-28T23:59:36.360Z,101694.72
